Time;durP1;ratioP1;P1;durP2;ratioP2;P2;SDS_P1;SDS_P2;PMS_P1;PMS_P2;Temp;Humidity;BMP_temperature;BMP_pressure;BME280_temperature;BME280_humidity;BME280_pressure;Samples;Min_cycle;Max_cycle;Signal;HPM_P1;HPM_P2
2023/03/11 00:00:35;;;;;;;1.80;0.38;;;15.60;51.40;;;;;;4988931;28;45196;-72
2023/03/11 00:03:06;;;;;;;1.67;0.38;;;15.60;51.50;;;;;;4988917;28;45428;-72
2023/03/11 00:05:36;;;;;;;1.00;0.45;;;15.60;51.40;;;;;;4988558;28;46392;-72
2023/03/11 00:08:04;;;;;;;0.95;0.20;;;15.70;51.20;;;;;;4988417;28;45187;-72
2023/03/11 00:10:32;;;;;;;0.77;0.20;;;15.70;51.20;;;;;;4988898;28;45129;-71
2023/03/11 00:12:59;;;;;;;1.05;0.30;;;15.70;50.80;;;;;;4988871;28;45631;-72
2023/03/11 00:15:27;;;;;;;1.52;0.40;;;15.70;51.20;;;;;;4988396;28;45262;-72
2023/03/11 00:17:54;;;;;;;1.05;0.40;;;15.70;51.40;;;;;;4988291;28;45240;-72
2023/03/11 00:20:23;;;;;;;2.22;0.38;;;15.60;51.00;;;;;;4988853;28;45224;-72
2023/03/11 00:22:52;;;;;;;0.40;0.22;;;15.60;51.20;;;;;;4988819;28;45209;-72
2023/03/11 00:25:20;;;;;;;0.38;0.20;;;15.60;51.20;;;;;;4988420;28;47626;-72
2023/03/11 00:27:47;;;;;;;0.70;0.30;;;15.60;51.00;;;;;;4988189;28;45415;-72
2023/03/11 00:30:16;;;;;;;1.00;0.47;;;15.60;51.00;;;;;;4988245;28;45188;-72
2023/03/11 00:32:43;;;;;;;0.73;0.25;;;15.60;51.00;;;;;;4988491;28;45365;-72
2023/03/11 00:35:13;;;;;;;0.55;0.30;;;15.60;50.90;;;;;;4988350;28;46283;-72
2023/03/11 00:37:39;;;;;;;2.03;0.40;;;15.60;50.80;;;;;;4988398;28;45211;-72
2023/03/11 00:40:12;;;;;;;0.40;0.20;;;15.60;50.70;;;;;;4987919;28;45371;-72
2023/03/11 00:42:39;;;;;;;0.55;0.20;;;15.60;50.60;;;;;;4988716;28;45489;-72
2023/03/11 00:45:07;;;;;;;2.55;0.30;;;15.60;50.80;;;;;;4988133;28;46588;-72
2023/03/11 00:47:34;;;;;;;0.88;0.40;;;15.60;50.90;;;;;;4988207;28;45375;-72
2023/03/11 00:50:01;;;;;;;2.30;0.30;;;15.70;51.10;;;;;;4988145;28;45244;-72
2023/03/11 00:52:28;;;;;;;1.38;0.38;;;15.70;51.20;;;;;;4988172;28;45368;-72
2023/03/11 00:54:54;;;;;;;0.80;0.30;;;15.70;51.40;;;;;;4988272;28;47802;-72
2023/03/11 00:57:23;;;;;;;1.88;0.43;;;15.70;51.40;;;;;;4987236;28;46347;-72
2023/03/11 00:59:49;;;;;;;4.32;0.40;;;15.70;51.30;;;;;;4987721;28;45213;-72
2023/03/11 01:02:16;;;;;;;0.55;0.28;;;15.70;51.40;;;;;;4988001;28;45101;-72
2023/03/11 01:04:43;;;;;;;1.88;0.60;;;15.70;51.20;;;;;;4987619;28;46306;-72
2023/03/11 01:07:10;;;;;;;1.90;0.35;;;15.80;51.30;;;;;;4987644;28;45281;-72
2023/03/11 01:09:37;;;;;;;2.13;0.40;;;15.70;51.50;;;;;;4987639;28;45365;-72
2023/03/11 01:12:04;;;;;;;1.75;0.73;;;15.70;51.20;;;;;;4987820;28;45564;-72
2023/03/11 01:14:32;;;;;;;1.63;0.30;;;15.70;51.20;;;;;;4987476;28;46344;-72
2023/03/11 01:16:59;;;;;;;0.45;0.20;;;15.70;50.80;;;;;;4987443;28;45242;-72
2023/03/11 01:19:26;;;;;;;0.65;0.17;;;15.70;50.70;;;;;;4987825;28;45312;-71
2023/03/11 01:21:52;;;;;;;1.02;0.40;;;15.70;50.70;;;;;;4987510;28;45453;-72
2023/03/11 01:24:19;;;;;;;0.80;0.30;;;15.70;50.30;;;;;;4987281;28;47373;-72
2023/03/11 01:26:46;;;;;;;0.68;0.32;;;15.70;50.30;;;;;;4987377;28;45221;-72
2023/03/11 01:29:13;;;;;;;0.57;0.30;;;15.70;50.70;;;;;;4987243;28;45224;-72
2023/03/11 01:31:41;;;;;;;1.00;0.20;;;15.70;50.70;;;;;;4987480;28;45309;-72
2023/03/11 01:34:08;;;;;;;1.05;0.20;;;15.70;50.60;;;;;;4987049;28;46394;-72
2023/03/11 01:36:35;;;;;;;0.30;0.17;;;15.70;50.60;;;;;;4987413;28;45209;-72
2023/03/11 01:39:01;;;;;;;1.58;0.50;;;15.70;50.70;;;;;;4987469;28;45355;-72
2023/03/11 01:41:28;;;;;;;0.73;0.32;;;15.70;50.60;;;;;;4987278;28;45134;-72
2023/03/11 01:43:55;;;;;;;0.98;0.30;;;15.70;50.70;;;;;;4986897;28;48008;-72
2023/03/11 01:46:24;;;;;;;0.10;0.08;;;15.70;50.70;;;;;;4987236;28;45870;-72
2023/03/11 01:48:54;;;;;;;0.77;0.40;;;15.70;51.00;;;;;;4987215;28;45251;-72
2023/03/11 01:51:27;;;;;;;0.30;0.28;;;15.70;50.70;;;;;;4987147;28;45464;-72
2023/03/11 01:53:55;;;;;;;0.45;0.20;;;15.70;50.90;;;;;;4987193;28;47796;-72
2023/03/11 01:56:23;;;;;;;1.08;0.30;;;15.80;51.00;;;;;;4987126;28;45231;-72
2023/03/11 01:58:52;;;;;;;1.17;0.38;;;15.70;50.80;;;;;;4987023;28;45129;-72
2023/03/11 02:01:20;;;;;;;2.10;0.52;;;15.70;51.10;;;;;;4987003;28;45297;-72
2023/03/11 02:03:48;;;;;;;1.52;0.40;;;15.80;50.90;;;;;;4986877;28;45493;-72
2023/03/11 02:06:20;;;;;;;1.02;0.32;;;15.80;50.80;;;;;;4986936;28;45248;-72
2023/03/11 02:08:48;;;;;;;0.68;0.28;;;15.80;50.70;;;;;;4985992;28;45291;-72
2023/03/11 02:11:19;;;;;;;0.47;0.28;;;15.80;50.70;;;;;;4987240;28;45166;-72
2023/03/11 02:13:48;;;;;;;0.43;0.20;;;15.80;50.80;;;;;;4984016;28;46967;-72
2023/03/11 02:16:15;;;;;;;0.85;0.30;;;15.70;50.00;;;;;;4986495;28;45097;-72
2023/03/11 02:18:42;;;;;;;0.85;0.38;;;15.70;50.00;;;;;;4986837;28;45074;-72
2023/03/11 02:21:19;;;;;;;0.57;0.38;;;15.70;50.00;;;;;;4986777;28;45581;-72
2023/03/11 02:23:53;;;;;;;1.17;0.40;;;15.70;50.10;;;;;;4986763;28;46604;-72
2023/03/11 02:26:25;;;;;;;1.00;0.30;;;15.70;50.00;;;;;;4986690;28;45656;-72
2023/03/11 02:28:54;;;;;;;1.92;0.40;;;15.70;50.00;;;;;;4986912;28;45285;-72
2023/03/11 02:31:22;;;;;;;1.20;0.20;;;15.70;51.10;;;;;;4986738;28;45161;-72
2023/03/11 02:33:51;;;;;;;0.38;0.35;;;15.70;50.00;;;;;;4986209;28;48273;-72
2023/03/11 02:36:36;;;;;;;0.75;0.30;;;15.70;50.00;;;;;;4986368;28;45305;-72
2023/03/11 02:39:05;;;;;;;2.13;0.40;;;15.70;50.00;;;;;;4986648;28;45260;-72
2023/03/11 02:41:32;;;;;;;0.30;0.10;;;15.70;50.00;;;;;;4986222;28;45556;-72
2023/03/11 02:44:02;;;;;;;0.43;0.20;;;15.60;49.90;;;;;;4986474;28;46338;-72
2023/03/11 02:46:29;;;;;;;0.55;0.20;;;15.60;49.20;;;;;;4986357;28;45448;-72
2023/03/11 02:48:57;;;;;;;0.30;0.22;;;15.60;48.80;;;;;;4986461;28;45163;-72
2023/03/11 02:51:24;;;;;;;1.00;0.32;;;15.60;48.90;;;;;;4986506;28;45312;-72
2023/03/11 02:53:54;;;;;;;0.77;0.20;;;15.60;48.40;;;;;;4986200;28;46279;-71
2023/03/11 02:56:21;;;;;;;1.05;0.30;;;15.60;48.30;;;;;;4986446;28;45237;-71
2023/03/11 02:58:48;;;;;;;1.52;0.40;;;15.60;48.50;;;;;;4986269;28;45216;-71
2023/03/11 03:01:16;;;;;;;1.77;0.43;;;15.60;48.40;;;;;;4986583;28;45687;-72
2023/03/11 03:04:17;;;;;;;0.63;0.30;;;15.60;48.30;;;;;;4986166;28;45252;-72
2023/03/11 03:06:43;;;;;;;2.05;0.68;;;15.60;48.70;;;;;;4986040;28;45297;-72
2023/03/11 03:09:10;;;;;;;2.00;0.40;;;15.60;48.80;;;;;;4986021;28;45291;-72
2023/03/11 03:11:37;;;;;;;3.88;0.40;;;15.60;49.00;;;;;;4986327;28;45141;-72
2023/03/11 03:14:04;;;;;;;1.25;0.30;;;15.60;49.00;;;;;;4986125;28;46570;-72
2023/03/11 03:16:32;;;;;;;1.17;0.30;;;15.60;48.60;;;;;;4985995;28;45238;-72
2023/03/11 03:18:59;;;;;;;1.15;0.30;;;15.60;48.40;;;;;;4986694;28;45228;-72
2023/03/11 03:21:26;;;;;;;2.03;0.40;;;15.60;48.50;;;;;;4989969;28;45082;-72
2023/03/11 03:23:52;;;;;;;0.57;0.30;;;15.60;48.60;;;;;;4989384;28;47667;-72
2023/03/11 03:26:19;;;;;;;1.58;0.40;;;15.60;48.40;;;;;;4989257;28;45166;-72
2023/03/11 03:28:46;;;;;;;0.45;0.30;;;15.60;48.50;;;;;;4989113;28;45386;-72
2023/03/11 03:31:13;;;;;;;0.70;0.40;;;15.60;48.80;;;;;;4989384;28;45383;-72
2023/03/11 03:33:41;;;;;;;0.73;0.40;;;15.70;48.80;;;;;;4989348;28;48074;-72
2023/03/11 03:36:10;;;;;;;0.85;0.30;;;15.60;49.10;;;;;;4988974;28;45097;-72
2023/03/11 03:38:37;;;;;;;0.65;0.28;;;15.60;49.30;;;;;;4989252;28;45242;-72
2023/03/11 03:41:05;;;;;;;1.05;0.40;;;15.70;49.50;;;;;;4989196;28;45386;-72
2023/03/11 03:43:31;;;;;;;0.98;0.32;;;15.60;49.20;;;;;;4989039;28;48356;-72
2023/03/11 03:46:00;;;;;;;0.63;0.30;;;15.60;49.20;;;;;;4988911;28;45369;-72
2023/03/11 03:48:28;;;;;;;0.95;0.40;;;15.60;49.20;;;;;;4989075;28;45211;-72
2023/03/11 03:50:56;;;;;;;1.10;0.30;;;15.60;49.10;;;;;;4988887;28;45580;-72
2023/03/11 03:53:23;;;;;;;0.50;0.30;;;15.70;49.10;;;;;;4988825;28;46986;-72
2023/03/11 03:55:49;;;;;;;1.42;0.32;;;15.70;49.30;;;;;;4988786;28;45267;-72
2023/03/11 03:58:16;;;;;;;0.40;0.20;;;15.70;49.40;;;;;;4988769;28;45371;-72
2023/03/11 04:00:43;;;;;;;0.75;0.10;;;15.70;49.70;;;;;;4992203;28;45415;-72
2023/03/11 04:03:10;;;;;;;1.17;0.30;;;15.80;50.00;;;;;;4988844;28;46406;-72
2023/03/11 04:05:37;;;;;;;2.08;0.50;;;15.80;50.10;;;;;;4988908;28;45721;-72
2023/03/11 04:08:05;;;;;;;1.90;0.20;;;15.70;49.30;;;;;;4988934;28;45141;-72
2023/03/11 04:10:32;;;;;;;1.52;0.38;;;15.70;49.40;;;;;;4988810;28;45565;-72
2023/03/11 04:12:59;;;;;;;2.25;0.40;;;15.70;49.30;;;;;;4988716;28;47766;-72
2023/03/11 04:15:25;;;;;;;0.70;0.20;;;15.80;49.10;;;;;;4988930;28;45178;-72
2023/03/11 04:17:52;;;;;;;1.35;0.30;;;15.70;49.00;;;;;;4988638;28;45185;-72
2023/03/11 04:20:19;;;;;;;1.25;0.30;;;15.70;49.40;;;;;;4989096;28;45113;-72
2023/03/11 04:22:46;;;;;;;0.40;0.20;;;15.70;49.40;;;;;;4988380;28;47281;-72
2023/03/11 04:25:14;;;;;;;0.43;0.20;;;15.70;49.20;;;;;;4988214;28;46137;-72
2023/03/11 04:27:44;;;;;;;0.73;0.20;;;15.70;49.20;;;;;;4988289;28;45272;-72
2023/03/11 04:30:13;;;;;;;0.55;0.30;;;15.70;49.60;;;;;;4988336;28;45306;-72
2023/03/11 04:32:39;;;;;;;0.55;0.30;;;15.70;49.90;;;;;;4987533;28;47553;-72
2023/03/11 04:35:07;;;;;;;0.55;0.30;;;15.70;49.50;;;;;;4988150;28;45126;-72
2023/03/11 04:37:34;;;;;;;0.25;0.20;;;15.70;49.70;;;;;;4988767;28;45181;-72
2023/03/11 04:40:00;;;;;;;0.47;0.20;;;15.70;49.60;;;;;;4988086;28;45392;-72
2023/03/11 04:42:28;;;;;;;0.93;0.32;;;15.70;50.00;;;;;;4988009;28;46377;-72
2023/03/11 04:44:55;;;;;;;0.45;0.22;;;15.70;50.00;;;;;;4988212;28;45149;-72
2023/03/11 04:47:22;;;;;;;0.80;0.30;;;15.70;50.00;;;;;;4988678;28;45141;-72
2023/03/11 04:49:49;;;;;;;0.20;0.20;;;15.60;49.90;;;;;;4988080;28;45546;-72
2023/03/11 04:52:16;;;;;;;1.27;0.28;;;15.70;50.00;;;;;;4988058;28;48486;-72
2023/03/11 04:54:43;;;;;;;0.43;0.25;;;15.70;50.00;;;;;;4988030;28;45208;-72
2023/03/11 04:57:09;;;;;;;0.75;0.35;;;15.70;50.00;;;;;;4988013;28;45324;-72
2023/03/11 04:59:38;;;;;;;1.05;0.35;;;15.70;50.00;;;;;;4988257;28;45392;-72
2023/03/11 05:02:05;;;;;;;1.30;0.40;;;15.70;50.00;;;;;;4987947;28;47352;-72
2023/03/11 05:04:32;;;;;;;0.45;0.28;;;15.70;50.00;;;;;;4987710;28;45318;-72
2023/03/11 05:06:59;;;;;;;1.13;0.40;;;15.70;50.00;;;;;;4987880;28;45297;-72
2023/03/11 05:09:26;;;;;;;0.63;0.20;;;15.80;50.10;;;;;;4987922;28;45270;-72
2023/03/11 05:11:53;;;;;;;1.13;0.30;;;15.80;50.10;;;;;;4987680;28;45293;-72
2023/03/11 05:14:20;;;;;;;0.30;0.30;;;15.80;50.10;;;;;;4987646;28;45283;-71
2023/03/11 05:16:49;;;;;;;0.52;0.13;;;15.70;50.00;;;;;;4987891;28;45232;-71
2023/03/11 05:19:30;;;;;;;0.35;0.15;;;15.70;48.60;;;;;;4987980;28;45200;-71
2023/03/11 05:21:57;;;;;;;0.22;0.13;;;15.70;48.30;;;;;;4987759;28;47465;-72
2023/03/11 05:24:25;;;;;;;0.55;0.35;;;15.70;47.70;;;;;;4987788;28;45300;-71
2023/03/11 05:26:52;;;;;;;1.55;0.63;;;15.60;47.00;;;;;;4987789;28;45278;-72
2023/03/11 05:29:19;;;;;;;2.40;0.38;;;15.60;46.60;;;;;;4987756;28;45438;-71
2023/03/11 05:31:46;;;;;;;0.90;0.35;;;15.60;46.40;;;;;;4987134;28;47962;-71
2023/03/11 05:34:14;;;;;;;1.60;0.68;;;15.60;46.40;;;;;;4987447;28;45239;-71
2023/03/11 05:36:41;;;;;;;0.63;0.50;;;15.60;46.20;;;;;;4987476;28;45303;-71
2023/03/11 05:39:08;;;;;;;1.95;0.52;;;15.50;45.50;;;;;;4987722;28;45070;-71
2023/03/11 05:41:34;;;;;;;0.88;0.30;;;15.50;45.60;;;;;;4986865;28;46569;-71
2023/03/11 05:44:01;;;;;;;0.30;0.30;;;15.60;45.60;;;;;;4987356;28;45315;-71
2023/03/11 05:46:28;;;;;;;1.10;0.50;;;15.50;45.30;;;;;;4987123;28;45216;-71
2023/03/11 05:48:55;;;;;;;0.70;0.40;;;15.50;45.50;;;;;;4987229;28;45382;-71
2023/03/11 05:51:23;;;;;;;2.58;0.57;;;15.60;45.40;;;;;;4987151;28;46885;-71
2023/03/11 05:53:50;;;;;;;2.58;0.60;;;15.50;45.80;;;;;;4987310;28;45281;-71
2023/03/11 05:56:19;;;;;;;2.92;0.45;;;15.60;45.80;;;;;;4986943;28;45194;-71
2023/03/11 05:58:46;;;;;;;2.55;0.60;;;15.60;45.90;;;;;;4987216;28;45077;-72
2023/03/11 06:01:15;;;;;;;1.92;0.60;;;15.60;46.00;;;;;;4986651;28;48061;-71
2023/03/11 06:03:42;;;;;;;0.73;0.40;;;15.60;46.20;;;;;;4986918;28;45427;-71
2023/03/11 06:06:11;;;;;;;1.70;0.52;;;15.60;45.80;;;;;;4987375;28;45368;-71
2023/03/11 06:08:44;;;;;;;1.67;0.60;;;15.60;45.90;;;;;;4987282;28;45279;-71
2023/03/11 06:11:11;;;;;;;1.90;0.60;;;15.60;45.90;;;;;;4986871;28;46558;-71
2023/03/11 06:13:38;;;;;;;0.43;0.35;;;15.60;46.00;;;;;;4987135;28;45120;-71
2023/03/11 06:16:06;;;;;;;0.45;0.30;;;15.60;44.90;;;;;;4987157;28;45216;-71
2023/03/11 06:18:33;;;;;;;1.60;0.60;;;15.60;44.50;;;;;;4987293;28;45571;-70
2023/03/11 06:21:01;;;;;;;1.00;0.47;;;15.60;44.10;;;;;;4986430;28;45469;-71
2023/03/11 06:23:28;;;;;;;0.73;0.45;;;15.60;44.30;;;;;;4986410;28;45310;-71
2023/03/11 06:25:57;;;;;;;1.13;0.60;;;15.50;44.70;;;;;;4986661;28;45357;-71
2023/03/11 06:28:25;;;;;;;1.85;0.50;;;15.50;44.20;;;;;;4986806;28;45413;-71
2023/03/11 06:30:51;;;;;;;1.52;0.40;;;15.50;44.40;;;;;;4995009;28;47738;-73
2023/03/11 06:33:18;;;;;;;1.15;0.52;;;15.50;47.00;;;;;;5006090;28;45277;-73
2023/03/11 06:35:45;;;;;;;0.75;0.43;;;15.60;46.90;;;;;;5006291;28;45078;-73
2023/03/11 06:38:12;;;;;;;1.92;0.45;;;15.60;45.80;;;;;;5006226;28;45149;-73
2023/03/11 06:40:39;;;;;;;1.25;0.55;;;15.60;45.30;;;;;;5005382;28;46069;-74
2023/03/11 06:43:07;;;;;;;1.48;0.70;;;15.50;44.90;;;;;;5005789;28;45328;-73
2023/03/11 06:45:33;;;;;;;3.38;0.70;;;15.50;44.90;;;;;;5006066;28;45069;-73
2023/03/11 06:48:00;;;;;;;2.45;0.70;;;15.50;44.60;;;;;;5006063;28;45540;-73
2023/03/11 06:50:27;;;;;;;2.25;0.50;;;15.50;44.40;;;;;;5005671;28;46601;-73
2023/03/11 06:52:54;;;;;;;2.08;0.50;;;15.50;45.20;;;;;;5006415;28;45254;-73
2023/03/11 06:55:21;;;;;;;4.70;0.50;;;15.50;45.00;;;;;;5011305;28;45381;-74
2023/03/11 06:57:48;;;;;;;2.20;0.73;;;15.50;44.90;;;;;;5012500;28;45409;-73
2023/03/11 07:00:17;;;;;;;1.55;0.70;;;15.50;45.10;;;;;;5006373;28;47510;-73
2023/03/11 07:02:43;;;;;;;1.13;0.50;;;15.50;45.00;;;;;;4992894;28;45291;-73
2023/03/11 07:05:11;;;;;;;2.03;0.65;;;15.50;45.20;;;;;;4992792;28;45282;-73
2023/03/11 07:07:38;;;;;;;2.47;0.68;;;15.50;45.10;;;;;;4992638;28;45159;-74
2023/03/11 07:10:06;;;;;;;2.17;0.82;;;15.50;45.00;;;;;;4992418;28;46510;-73
2023/03/11 07:12:33;;;;;;;1.25;0.63;;;15.50;45.10;;;;;;4992465;28;45546;-73
2023/03/11 07:15:00;;;;;;;1.85;0.80;;;15.50;44.70;;;;;;4992522;28;45220;-73
2023/03/11 07:17:28;;;;;;;2.55;0.50;;;15.50;44.00;;;;;;4992793;28;45230;-73
2023/03/11 07:19:55;;;;;;;0.77;0.50;;;15.50;44.00;;;;;;4992177;28;46751;-73
2023/03/11 07:22:22;;;;;;;1.90;0.65;;;15.40;43.90;;;;;;4992973;28;45369;-74
2023/03/11 07:24:50;;;;;;;1.48;0.68;;;15.50;44.30;;;;;;4992397;28;45177;-74
2023/03/11 07:27:17;;;;;;;1.70;0.75;;;15.40;44.00;;;;;;4992781;28;45590;-74
2023/03/11 07:29:44;;;;;;;0.85;0.55;;;15.40;43.70;;;;;;4992021;28;48247;-73
2023/03/11 07:32:10;;;;;;;2.53;0.80;;;15.40;43.70;;;;;;4992535;28;45177;-73
2023/03/11 07:34:38;;;;;;;2.63;0.70;;;15.40;43.90;;;;;;4992557;28;45148;-73
2023/03/11 07:37:05;;;;;;;2.33;0.68;;;15.40;43.70;;;;;;4992659;28;45482;-74
2023/03/11 07:39:32;;;;;;;1.40;0.60;;;15.40;43.70;;;;;;4991833;28;46368;-74
2023/03/11 07:41:59;;;;;;;1.80;0.63;;;15.40;43.60;;;;;;4992402;28;45127;-74
2023/03/11 07:44:26;;;;;;;2.47;0.68;;;15.40;43.50;;;;;;4995356;28;45198;-74
2023/03/11 07:46:52;;;;;;;1.83;0.57;;;15.40;43.60;;;;;;4993052;28;45189;-74
2023/03/11 07:49:19;;;;;;;2.25;0.90;;;15.30;43.40;;;;;;4991854;28;48209;-74
2023/03/11 07:51:47;;;;;;;1.27;0.73;;;15.40;43.50;;;;;;4992010;28;45929;-74
2023/03/11 07:54:14;;;;;;;1.65;0.70;;;15.40;43.40;;;;;;4991974;28;45173;-74
2023/03/11 07:56:41;;;;;;;2.25;0.70;;;15.40;43.40;;;;;;4992432;28;45723;-74
2023/03/11 07:59:08;;;;;;;1.95;0.63;;;15.50;43.60;;;;;;4991658;28;45358;-74
2023/03/11 08:01:39;;;;;;;2.88;0.68;;;15.50;43.60;;;;;;4991974;28;45305;-73
2023/03/11 08:04:08;;;;;;;3.22;0.88;;;15.50;43.30;;;;;;4991948;28;45168;-74
2023/03/11 08:06:36;;;;;;;2.95;0.68;;;15.50;43.30;;;;;;4988563;28;45295;-74
2023/03/11 08:09:07;;;;;;;1.02;0.50;;;15.50;43.40;;;;;;4988367;28;45271;-73
2023/03/11 08:11:35;;;;;;;2.03;0.50;;;15.50;43.40;;;;;;4988850;28;45390;-73
2023/03/11 08:14:01;;;;;;;1.20;0.40;;;15.50;43.30;;;;;;4988961;28;45199;-74
2023/03/11 08:16:29;;;;;;;1.35;0.70;;;15.50;43.10;;;;;;4988888;28;45430;-74
2023/03/11 08:18:56;;;;;;;2.35;0.85;;;15.50;42.80;;;;;;4988880;28;47227;-73
2023/03/11 08:21:26;;;;;;;0.60;0.50;;;15.40;42.80;;;;;;4988847;28;45416;-74
2023/03/11 08:23:56;;;;;;;0.90;0.60;;;15.40;42.50;;;;;;4988446;28;45276;-74
2023/03/11 08:26:24;;;;;;;2.38;0.70;;;15.40;42.60;;;;;;4989064;28;45243;-74
2023/03/11 08:28:51;;;;;;;1.58;0.45;;;15.40;42.60;;;;;;4988363;28;47361;-74
2023/03/11 08:31:20;;;;;;;1.13;0.40;;;15.40;42.50;;;;;;4988015;28;45243;-74
2023/03/11 08:33:49;;;;;;;4.53;0.80;;;15.40;42.40;;;;;;4988723;28;45109;-74
2023/03/11 08:36:16;;;;;;;1.30;0.60;;;15.40;42.20;;;;;;4988757;28;45359;-74
2023/03/11 08:38:43;;;;;;;2.08;0.50;;;15.40;42.30;;;;;;4988269;28;45202;-74
2023/03/11 08:41:09;;;;;;;1.75;0.60;;;15.40;42.40;;;;;;4987911;28;45797;-74
2023/03/11 08:43:38;;;;;;;1.33;0.77;;;15.40;46.40;;;;;;4988365;28;45232;-74
2023/03/11 08:46:06;;;;;;;0.93;0.68;;;15.40;46.00;;;;;;4988447;28;45453;-74
2023/03/11 08:48:33;;;;;;;1.23;0.63;;;15.40;44.40;;;;;;4987886;28;45618;-74
2023/03/11 08:51:01;;;;;;;1.20;0.60;;;15.40;43.90;;;;;;4987763;28;46003;-74
2023/03/11 08:53:28;;;;;;;1.67;0.60;;;15.40;43.50;;;;;;4988397;28;45240;-74
2023/03/11 08:55:55;;;;;;;2.85;0.68;;;15.40;42.30;;;;;;4988035;28;45668;-74
2023/03/11 08:58:22;;;;;;;2.40;0.70;;;15.50;43.20;;;;;;4987685;28;46673;-74
2023/03/11 09:00:50;;;;;;;2.38;0.73;;;15.50;43.20;;;;;;4987698;28;45092;-74
2023/03/11 09:03:17;;;;;;;1.77;0.52;;;15.50;43.20;;;;;;4988150;28;45140;-74
2023/03/11 09:05:44;;;;;;;1.55;0.60;;;15.50;42.90;;;;;;4987927;28;45205;-74
2023/03/11 09:08:10;;;;;;;1.98;0.60;;;15.50;42.60;;;;;;4987526;28;48442;-74
2023/03/11 09:10:37;;;;;;;5.18;0.70;;;15.50;42.70;;;;;;4987772;28;45767;-74
2023/03/11 09:13:04;;;;;;;1.65;0.40;;;15.50;42.40;;;;;;4987741;28;45188;-74
2023/03/11 09:15:31;;;;;;;1.00;0.60;;;15.50;42.30;;;;;;4988005;28;45134;-74
2023/03/11 09:17:59;;;;;;;1.60;0.45;;;15.50;42.10;;;;;;4987246;28;47286;-74
2023/03/11 09:20:26;;;;;;;1.05;0.50;;;15.50;43.30;;;;;;4987575;28;45370;-74
2023/03/11 09:22:54;;;;;;;0.57;0.40;;;15.50;41.80;;;;;;4970465;28;45230;-74
2023/03/11 09:25:21;;;;;;;1.40;0.52;;;15.50;41.50;;;;;;4987686;28;45547;-74
2023/03/11 09:27:47;;;;;;;0.50;0.40;;;15.50;41.50;;;;;;4987451;28;47507;-74
2023/03/11 09:30:14;;;;;;;2.25;0.60;;;15.50;41.30;;;;;;4987835;28;45232;-74
2023/03/11 09:32:41;;;;;;;0.73;0.50;;;15.50;41.30;;;;;;4987318;28;45209;-74
2023/03/11 09:35:10;;;;;;;0.40;0.22;;;15.50;41.20;;;;;;4987736;28;45141;-73
2023/03/11 09:37:36;;;;;;;1.75;0.30;;;15.50;41.10;;;;;;4987118;28;48800;-74
2023/03/11 09:40:04;;;;;;;2.83;0.47;;;15.50;41.10;;;;;;4986858;28;45165;-74
2023/03/11 09:42:37;;;;;;;1.00;0.35;;;15.50;41.20;;;;;;4987558;28;45198;-74
2023/03/11 09:45:10;;;;;;;1.38;0.40;;;15.50;41.10;;;;;;4984471;28;45220;-74
2023/03/11 09:47:40;;;;;;;1.10;0.40;;;15.50;40.90;;;;;;4987151;28;45228;-74
2023/03/11 09:50:24;;;;;;;1.73;0.40;;;15.50;40.80;;;;;;4987259;28;45208;-74
2023/03/11 09:53:10;;;;;;;0.68;0.40;;;15.50;40.60;;;;;;4987014;28;45284;-74
2023/03/11 09:55:43;;;;;;;0.57;0.40;;;15.50;40.60;;;;;;4987338;28;45312;-74
2023/03/11 09:58:13;;;;;;;0.85;0.32;;;15.50;40.40;;;;;;4987071;28;47400;-73
2023/03/11 10:00:41;;;;;;;0.55;0.30;;;15.50;40.10;;;;;;4987090;28;45793;-74
2023/03/11 10:03:17;;;;;;;1.10;0.40;;;15.50;40.20;;;;;;4987123;28;45216;-74
2023/03/11 10:05:46;;;;;;;1.52;0.40;;;15.50;40.00;;;;;;4986803;28;45414;-73
2023/03/11 10:08:21;;;;;;;0.30;0.30;;;15.60;40.60;;;;;;4986584;28;48191;-74
2023/03/11 10:10:54;;;;;;;2.03;0.47;;;15.60;40.80;;;;;;4986911;28;45204;-73
2023/03/11 10:13:30;;;;;;;1.10;0.32;;;15.60;40.30;;;;;;4986967;28;45196;-73
2023/03/11 10:16:09;;;;;;;0.40;0.30;;;15.60;39.90;;;;;;4987071;28;45200;-74
2023/03/11 10:18:47;;;;;;;2.40;0.35;;;15.60;38.80;;;;;;4986451;28;46982;-74
2023/03/11 10:21:27;;;;;;;1.63;0.35;;;15.60;39.00;;;;;;4987090;28;45319;-74
2023/03/11 10:24:05;;;;;;;1.83;0.50;;;15.50;38.90;;;;;;4986914;28;45078;-74
2023/03/11 10:26:36;;;;;;;1.05;0.30;;;15.50;38.50;;;;;;4987156;28;45120;-74
2023/03/11 10:29:14;;;;;;;0.65;0.22;;;15.50;38.80;;;;;;4985729;28;47270;-74
2023/03/11 10:31:47;;;;;;;0.75;0.13;;;15.50;38.80;;;;;;4987105;28;45363;-74
2023/03/11 10:34:20;;;;;;;0.50;0.17;;;15.50;38.80;;;;;;4986882;28;45188;-74
2023/03/11 10:36:55;;;;;;;2.03;0.28;;;15.50;38.60;;;;;;4986834;28;45556;-74
2023/03/11 10:39:23;;;;;;;0.75;0.20;;;15.50;38.90;;;;;;4986412;28;47067;-74
2023/03/11 10:41:53;;;;;;;0.50;0.20;;;15.40;38.80;;;;;;4986158;28;45616;-74
2023/03/11 10:44:25;;;;;;;2.97;0.30;;;15.40;38.40;;;;;;4986839;28;45160;-74
2023/03/11 10:46:52;;;;;;;0.75;0.50;;;15.50;39.50;;;;;;4986843;28;45440;-73
2023/03/11 10:49:18;;;;;;;0.20;0.13;;;15.50;39.20;;;;;;4986288;28;46975;-74
2023/03/11 10:51:48;;;;;;;0.73;0.13;;;15.50;39.20;;;;;;4986299;28;45429;-74
2023/03/11 10:54:25;;;;;;;1.98;0.28;;;15.50;39.20;;;;;;4986684;28;45125;-74
2023/03/11 10:56:56;;;;;;;0.40;0.13;;;15.50;38.80;;;;;;4986743;28;45479;-74
2023/03/11 10:59:27;;;;;;;0.30;0.20;;;15.60;38.90;;;;;;4985918;28;48265;-74
2023/03/11 11:01:56;;;;;;;0.52;0.20;;;15.60;38.50;;;;;;4986008;28;46030;-74
2023/03/11 11:04:29;;;;;;;0.30;0.17;;;15.60;38.60;;;;;;4986625;28;45170;-74
2023/03/11 11:06:55;;;;;;;0.73;0.17;;;15.60;38.70;;;;;;4986493;28;45402;-74
2023/03/11 11:09:24;;;;;;;0.65;0.20;;;15.60;39.00;;;;;;4986209;28;47599;-74
2023/03/11 11:12:03;;;;;;;1.15;0.20;;;15.60;38.00;;;;;;4986040;28;45661;-74
2023/03/11 11:14:46;;;;;;;0.98;0.25;;;15.60;38.10;;;;;;4985915;28;45205;-73
2023/03/11 11:17:18;;;;;;;0.93;0.22;;;15.60;38.10;;;;;;4986122;28;45136;-73
2023/03/11 11:19:46;;;;;;;0.85;0.30;;;15.60;38.50;;;;;;4985817;28;47724;-73
2023/03/11 11:22:17;;;;;;;0.55;0.10;;;15.60;38.50;;;;;;4986112;28;45700;-74
2023/03/11 11:24:47;;;;;;;1.23;0.17;;;15.50;38.40;;;;;;4986537;28;45251;-73
2023/03/11 11:27:20;;;;;;;1.10;0.20;;;15.50;38.60;;;;;;4986300;28;45195;-73
2023/03/11 11:29:48;;;;;;;0.45;0.28;;;15.50;39.00;;;;;;4985795;28;45431;-74
2023/03/11 11:32:24;;;;;;;0.38;0.10;;;15.50;39.90;;;;;;4986046;28;45216;-73
2023/03/11 11:34:57;;;;;;;0.15;0.10;;;15.50;40.40;;;;;;4986382;28;45359;-74
2023/03/11 11:37:25;;;;;;;2.40;0.20;;;15.50;41.10;;;;;;4986080;28;45180;-73
2023/03/11 11:39:58;;;;;;;0.25;0.13;;;15.50;41.30;;;;;;4985370;28;46347;-74
2023/03/11 11:42:28;;;;;;;0.38;0.20;;;15.50;41.30;;;;;;4989031;28;45338;-74
2023/03/11 11:45:00;;;;;;;0.70;0.20;;;15.50;42.70;;;;;;4989087;28;45152;-74
2023/03/11 11:47:34;;;;;;;0.20;0.20;;;15.50;41.30;;;;;;4989172;28;45298;-74
2023/03/11 11:50:06;;;;;;;0.55;0.20;;;15.50;41.40;;;;;;4989163;28;45226;-74
2023/03/11 11:52:40;;;;;;;1.55;0.30;;;15.50;41.10;;;;;;4988856;28;45093;-74
2023/03/11 11:55:19;;;;;;;0.45;0.10;;;15.60;41.50;;;;;;4989179;28;45170;-73
2023/03/11 11:57:46;;;;;;;0.85;0.30;;;15.60;41.30;;;;;;4989374;28;45542;-74
2023/03/11 12:00:19;;;;;;;0.52;0.30;;;15.70;42.50;;;;;;4989000;28;46614;-73
2023/03/11 12:02:58;;;;;;;0.10;0.10;;;15.70;41.10;;;;;;4988927;28;46461;-73
2023/03/11 12:05:30;;;;;;;0.95;0.20;;;15.70;41.20;;;;;;4989157;28;45153;-73
2023/03/11 12:08:09;;;;;;;0.40;0.10;;;15.70;41.30;;;;;;4989192;28;45216;-73
2023/03/11 12:10:46;;;;;;;0.05;0.05;;;15.70;41.10;;;;;;4988693;28;45763;-73
2023/03/11 12:13:32;;;;;;;0.43;0.20;;;15.70;41.20;;;;;;4988786;28;45140;-73
2023/03/11 12:16:05;;;;;;;0.80;0.32;;;15.70;41.40;;;;;;4988887;28;45243;-74
2023/03/11 12:18:37;;;;;;;1.55;0.20;;;15.70;41.50;;;;;;4988961;28;45506;-73
2023/03/11 12:21:15;;;;;;;0.20;0.10;;;15.70;41.60;;;;;;4988624;28;48385;-73
2023/03/11 12:23:52;;;;;;;1.13;0.20;;;15.70;42.20;;;;;;4988625;28;45140;-74
2023/03/11 12:26:22;;;;;;;1.02;0.32;;;15.70;42.50;;;;;;4988986;28;45543;-73
2023/03/11 12:28:55;;;;;;;0.82;0.20;;;15.70;42.40;;;;;;4988751;28;45086;-73
2023/03/11 12:31:24;;;;;;;1.23;0.30;;;15.70;42.60;;;;;;4988215;28;45658;-74
2023/03/11 12:33:57;;;;;;;1.35;0.20;;;15.70;42.50;;;;;;4988482;28;45151;-73
2023/03/11 12:36:30;;;;;;;0.90;0.20;;;15.70;42.50;;;;;;4988563;28;45217;-74
2023/03/11 12:38:58;;;;;;;1.65;0.20;;;15.70;42.50;;;;;;4989023;28;45249;-74
2023/03/11 12:41:32;;;;;;;2.17;0.30;;;15.70;42.30;;;;;;4987893;28;46528;-74
2023/03/11 12:44:04;;;;;;;0.50;0.17;;;15.70;42.70;;;;;;4988410;28;45215;-73
2023/03/11 12:47:10;;;;;;;0.50;0.20;;;15.70;42.60;;;;;;4988321;28;45222;-74
2023/03/11 12:49:38;;;;;;;2.45;0.10;;;15.70;42.30;;;;;;4988261;28;45406;-73
2023/03/11 12:52:22;;;;;;;0.30;0.20;;;15.70;42.30;;;;;;4987280;28;45473;-74
2023/03/11 12:55:10;;;;;;;0.38;0.00;;;15.70;42.30;;;;;;4987820;28;46167;-73
2023/03/11 12:57:49;;;;;;;0.20;0.20;;;15.80;42.50;;;;;;4987899;28;45210;-73